ザウジ の空港の天気 - METARとTAF

ザウジ・パマンジ空港 ( FMCZ / DZA ) - マヨット ザウジ
飛行場実況気象(Metar)
観測時間09/29 05:30 EAT (09/29 02:30 UTC)
風向・風速南西 3m/s
視程10km以上
天気現象
少しの雲 雲底高度 550m
気温23℃
湿度89%
気圧1014hPa
METARFMCZ 290230Z AUTO 23005KT 9999 FEW018 23/21 Q1014 NOSIG
過去の天気等 Google飛行場航空写真 Wunderground天気予報

過去48時間のMETAR

飛行場予報(TAF)
発表時間: -
29日11時 EAT ~ 29日13時 EAT に徐々に
風向・風速南南東 5m/s
TAF
FMCZ 282300Z 2900/2924 02004KT 9999 NSC
BECMG 2908/2910 16010KT